Time;durP1;ratioP1;P1;durP2;ratioP2;P2;SDS_P1;SDS_P2;PMS_P1;PMS_P2;Temp;Humidity;BMP_temperature;BMP_pressure;BME280_temperature;BME280_humidity;BME280_pressure;Samples;Min_cycle;Max_cycle;Signal;HPM_P1;HPM_P2
2021/05/21 00:00:54;;;;;;;9.00;4.93;;;;;;;;;;10291663;28;20047;-64
2021/05/21 00:05:51;;;;;;;12.57;6.23;;;;;;;;;;10271872;28;20037;-64
2021/05/21 00:10:49;;;;;;;10.30;4.18;;;;;;;;;;10296572;28;20132;-65
2021/05/21 00:15:47;;;;;;;6.97;3.30;;;;;;;;;;10280502;28;20048;-65
2021/05/21 00:20:44;;;;;;;5.87;2.93;;;;;;;;;;10293007;28;20514;-65
2021/05/21 00:25:41;;;;;;;7.57;5.93;;;;;;;;;;10292099;28;20029;-65
2021/05/21 00:30:39;;;;;;;8.13;5.20;;;;;;;;;;10285100;28;20029;-66
2021/05/21 00:35:36;;;;;;;10.77;3.93;;;;;;;;;;10284512;28;20061;-65
2021/05/21 00:40:34;;;;;;;10.77;6.50;;;;;;;;;;10298250;28;20044;-65
2021/05/21 00:45:31;;;;;;;7.03;4.33;;;;;;;;;;10286304;28;20033;-66
2021/05/21 00:50:29;;;;;;;6.07;2.90;;;;;;;;;;10296628;28;20025;-66
2021/05/21 00:55:26;;;;;;;5.40;2.13;;;;;;;;;;10271721;28;20029;-66
2021/05/21 01:00:23;;;;;;;8.83;5.07;;;;;;;;;;10268613;28;20037;-66
2021/05/21 01:05:21;;;;;;;9.97;6.33;;;;;;;;;;10293935;28;20127;-66
2021/05/21 01:10:18;;;;;;;5.37;3.57;;;;;;;;;;10283102;28;20143;-66
2021/05/21 01:15:16;;;;;;;9.10;4.90;;;;;;;;;;10305291;28;20124;-66
2021/05/21 01:20:14;;;;;;;5.03;3.03;;;;;;;;;;10288580;28;20037;-66
2021/05/21 01:25:11;;;;;;;4.90;2.77;;;;;;;;;;10283010;28;20030;-65
2021/05/21 01:30:09;;;;;;;5.53;2.30;;;;;;;;;;10279460;28;20034;-67
2021/05/21 01:35:07;;;;;;;6.87;4.27;;;;;;;;;;10270006;28;20490;-66
2021/05/21 01:40:05;;;;;;;8.33;4.83;;;;;;;;;;10287551;28;20036;-67
2021/05/21 01:45:03;;;;;;;11.23;3.50;;;;;;;;;;10280324;28;20479;-68
2021/05/21 01:50:00;;;;;;;4.40;2.50;;;;;;;;;;10292680;28;20033;-64
2021/05/21 01:54:58;;;;;;;7.40;4.47;;;;;;;;;;10260311;28;20025;-65
2021/05/21 01:59:55;;;;;;;9.50;6.07;;;;;;;;;;10288765;28;20449;-65
2021/05/21 02:04:53;;;;;;;9.60;3.90;;;;;;;;;;10294972;28;20411;-62
2021/05/21 02:09:55;;;;;;;7.60;3.97;;;;;;;;;;10277249;28;20038;-65
2021/05/21 02:14:53;;;;;;;4.65;3.63;;;;;;;;;;10300739;28;20044;-65
2021/05/21 02:19:51;;;;;;;6.95;3.90;;;;;;;;;;10274921;28;20038;-66
2021/05/21 02:24:49;;;;;;;6.10;3.35;;;;;;;;;;10295690;28;20036;-66
2021/05/21 02:29:47;;;;;;;4.93;3.10;;;;;;;;;;10283600;28;20085;-67
2021/05/21 02:34:44;;;;;;;5.67;2.40;;;;;;;;;;10282591;28;20570;-65
2021/05/21 02:39:42;;;;;;;4.20;2.77;;;;;;;;;;10286817;28;20029;-65
2021/05/21 02:44:39;;;;;;;4.47;3.30;;;;;;;;;;10276244;28;20052;-65
2021/05/21 02:49:37;;;;;;;4.83;2.77;;;;;;;;;;10298196;28;20033;-66
2021/05/21 02:54:34;;;;;;;9.60;2.80;;;;;;;;;;10281879;28;20076;-65
2021/05/21 02:59:31;;;;;;;7.43;2.90;;;;;;;;;;10292737;28;20045;-65
2021/05/21 03:04:29;;;;;;;5.50;2.73;;;;;;;;;;10296583;28;20044;-65
2021/05/21 03:09:26;;;;;;;6.47;2.73;;;;;;;;;;10279833;28;20125;-64
2021/05/21 03:14:23;;;;;;;2.00;1.57;;;;;;;;;;10308528;28;20050;-65
2021/05/21 03:19:21;;;;;;;5.07;3.10;;;;;;;;;;10311345;28;20065;-64
2021/05/21 03:24:18;;;;;;;4.87;2.33;;;;;;;;;;10286305;28;20324;-64
2021/05/21 03:29:16;;;;;;;2.20;1.83;;;;;;;;;;10299345;28;20528;-67
2021/05/21 03:34:13;;;;;;;5.57;2.67;;;;;;;;;;10294257;28;20030;-65
2021/05/21 03:39:11;;;;;;;4.47;2.87;;;;;;;;;;10283777;28;20033;-65
2021/05/21 03:44:08;;;;;;;2.50;2.00;;;;;;;;;;10269750;28;20388;-67
2021/05/21 03:49:06;;;;;;;3.47;2.00;;;;;;;;;;10272577;28;20292;-63
2021/05/21 03:54:03;;;;;;;4.10;1.70;;;;;;;;;;10298517;28;20041;-65
2021/05/21 03:59:01;;;;;;;3.87;1.43;;;;;;;;;;10270025;28;20114;-64
2021/05/21 04:03:59;;;;;;;1.83;1.73;;;;;;;;;;10305858;28;20037;-61
2021/05/21 04:08:57;;;;;;;1.17;1.00;;;;;;;;;;10277089;28;20029;-61
2021/05/21 04:13:54;;;;;;;3.40;0.90;;;;;;;;;;10303627;28;20038;-63
2021/05/21 04:18:52;;;;;;;1.17;0.57;;;;;;;;;;10292635;28;20041;-61
2021/05/21 04:23:49;;;;;;;1.23;1.00;;;;;;;;;;10286161;28;20037;-61
2021/05/21 04:28:50;;;;;;;0.77;0.77;;;;;;;;;;10276555;28;20075;-63
2021/05/21 04:33:47;;;;;;;0.70;0.65;;;;;;;;;;10282643;28;20048;-62
2021/05/21 04:38:45;;;;;;;0.60;0.60;;;;;;;;;;10273356;28;20079;-62
2021/05/21 04:43:42;;;;;;;0.97;0.40;;;;;;;;;;10288481;28;20132;-65
2021/05/21 04:48:40;;;;;;;0.67;0.57;;;;;;;;;;10281143;28;20116;-65
2021/05/21 04:53:40;;;;;;;1.20;0.85;;;;;;;;;;10285245;28;20043;-63
2021/05/21 04:58:38;;;;;;;1.40;1.00;;;;;;;;;;10279670;28;20080;-63
2021/05/21 05:03:35;;;;;;;0.93;0.70;;;;;;;;;;10276486;28;20069;-64
2021/05/21 05:08:32;;;;;;;3.10;0.93;;;;;;;;;;10288967;28;20103;-62
2021/05/21 05:13:30;;;;;;;0.93;0.90;;;;;;;;;;10266719;28;20034;-66
2021/05/21 05:18:27;;;;;;;4.17;0.60;;;;;;;;;;10282363;28;20038;-63
2021/05/21 05:23:25;;;;;;;2.57;1.03;;;;;;;;;;10278692;28;20410;-63
2021/05/21 05:28:22;;;;;;;0.83;0.50;;;;;;;;;;10283301;28;20529;-65
2021/05/21 05:33:20;;;;;;;0.63;0.63;;;;;;;;;;10276365;28;20030;-63
2021/05/21 05:38:17;;;;;;;1.00;0.70;;;;;;;;;;10296289;28;20044;-66
2021/05/21 05:43:14;;;;;;;3.93;1.33;;;;;;;;;;10297995;28;20104;-61
2021/05/21 05:48:12;;;;;;;1.43;0.50;;;;;;;;;;10290208;28;20037;-64
2021/05/21 05:53:09;;;;;;;6.03;0.73;;;;;;;;;;10294539;28;20554;-63
2021/05/21 05:58:08;;;;;;;2.33;0.53;;;;;;;;;;10282990;28;20046;-66
2021/05/21 06:03:09;;;;;;;6.82;0.88;;;;;;;;;;10271979;28;20131;-63
2021/05/21 06:08:07;;;;;;;7.85;1.02;;;;;;;;;;10242381;28;20550;-62
2021/05/21 06:13:06;;;;;;;5.45;0.75;;;;;;;;;;10292368;28;20041;-66
2021/05/21 06:18:04;;;;;;;6.68;1.52;;;;;;;;;;10278866;28;20053;-63
2021/05/21 06:23:02;;;;;;;1.55;0.52;;;;;;;;;;10279675;28;20044;-64
2021/05/21 06:28:00;;;;;;;2.20;0.80;;;;;;;;;;10302046;28;20040;-62
2021/05/21 06:32:57;;;;;;;1.60;0.77;;;;;;;;;;10295177;28;20026;-64
2021/05/21 06:37:55;;;;;;;3.57;0.80;;;;;;;;;;10276606;28;20083;-65
2021/05/21 06:42:52;;;;;;;3.87;1.07;;;;;;;;;;10294140;28;20038;-63
2021/05/21 06:47:49;;;;;;;4.50;0.93;;;;;;;;;;10279482;28;20518;-63
2021/05/21 06:52:47;;;;;;;2.97;0.90;;;;;;;;;;10299119;28;20032;-64
2021/05/21 06:57:44;;;;;;;1.87;0.73;;;;;;;;;;10293048;28;20037;-64
2021/05/21 07:02:42;;;;;;;3.60;0.47;;;;;;;;;;10285992;28;20040;-64
2021/05/21 07:07:40;;;;;;;3.00;0.68;;;;;;;;;;10285618;28;20041;-65
2021/05/21 07:12:37;;;;;;;1.90;0.40;;;;;;;;;;10290773;28;20549;-65
2021/05/21 07:17:35;;;;;;;1.43;0.77;;;;;;;;;;10300839;28;20041;-63
2021/05/21 07:22:33;;;;;;;3.85;1.10;;;;;;;;;;10288737;28;20305;-61
2021/05/21 07:27:31;;;;;;;5.33;1.10;;;;;;;;;;10294705;28;20120;-63
2021/05/21 07:32:28;;;;;;;2.03;0.83;;;;;;;;;;10295547;28;20218;-61
2021/05/21 07:37:26;;;;;;;2.47;0.90;;;;;;;;;;10284658;28;20034;-64
2021/05/21 07:42:23;;;;;;;2.50;0.53;;;;;;;;;;10291893;28;20449;-63
2021/05/21 07:47:21;;;;;;;2.70;0.80;;;;;;;;;;10277059;28;20045;-66
2021/05/21 07:52:18;;;;;;;2.53;1.00;;;;;;;;;;10276354;28;20482;-63
2021/05/21 07:57:15;;;;;;;6.07;1.27;;;;;;;;;;10304307;28;20136;-64
2021/05/21 08:02:13;;;;;;;4.93;1.13;;;;;;;;;;10285583;28;20041;-64
2021/05/21 08:07:10;;;;;;;3.50;1.73;;;;;;;;;;10295122;28;20033;-62
2021/05/21 08:12:09;;;;;;;2.67;0.80;;;;;;;;;;10299170;28;20033;-65
2021/05/21 08:17:08;;;;;;;5.25;1.25;;;;;;;;;;10292890;28;20080;-64
2021/05/21 08:22:06;;;;;;;8.10;1.58;;;;;;;;;;10280454;28;20038;-64
2021/05/21 08:27:03;;;;;;;9.57;1.77;;;;;;;;;;10301628;28;20037;-65
2021/05/21 08:32:01;;;;;;;5.67;1.37;;;;;;;;;;10297347;28;20041;-65
2021/05/21 08:36:59;;;;;;;5.20;0.93;;;;;;;;;;10293832;28;20485;-68
2021/05/21 08:41:58;;;;;;;2.88;1.20;;;;;;;;;;10268200;28;20479;-65
2021/05/21 08:46:59;;;;;;;5.78;1.42;;;;;;;;;;10278770;28;20518;-63
2021/05/21 08:51:57;;;;;;;5.03;1.40;;;;;;;;;;10286684;28;20115;-63
2021/05/21 08:56:55;;;;;;;2.92;0.95;;;;;;;;;;10291019;28;20048;-65
2021/05/21 09:01:53;;;;;;;3.87;1.27;;;;;;;;;;10280723;28;20033;-64
2021/05/21 09:06:50;;;;;;;;;;;;;;;;;;10273554;28;20047;-65
2021/05/21 09:11:52;;;;;;;9.23;1.67;;;;;;;;;;10291966;28;20374;-62
2021/05/21 09:16:49;;;;;;;4.00;1.00;;;;;;;;;;10287386;28;20029;-63
2021/05/21 09:21:54;;;;;;;4.37;1.10;;;;;;;;;;10289083;28;20033;-64
2021/05/21 09:26:52;;;;;;;4.68;1.02;;;;;;;;;;10283184;28;20040;-64
2021/05/21 09:31:49;;;;;;;8.20;1.30;;;;;;;;;;10290652;28;20029;-64
2021/05/21 09:36:52;;;;;;;4.93;0.77;;;;;;;;;;10279107;28;20033;-63
2021/05/21 09:41:51;;;;;;;1.35;0.90;;;;;;;;;;10270944;28;20036;-65
2021/05/21 09:46:49;;;;;;;2.88;0.88;;;;;;;;;;10294108;28;20046;-64
2021/05/21 09:51:50;;;;;;;5.93;1.10;;;;;;;;;;10278320;28;20064;-63
2021/05/21 09:57:01;;;;;;;3.85;1.13;;;;;;;;;;10289171;28;20042;-63
2021/05/21 10:01:59;;;;;;;5.57;1.40;;;;;;;;;;10296971;28;20132;-63
2021/05/21 10:06:56;;;;;;;2.22;0.77;;;;;;;;;;10303154;28;20129;-65
2021/05/21 10:11:53;;;;;;;;;;;;;;;;;;10309947;28;20037;-64
2021/05/21 10:16:51;;;;;;;4.22;1.20;;;;;;;;;;10292633;28;19921;-65
2021/05/21 10:21:48;;;;;;;;;;;;;;;;;;10295938;28;20037;-62
2021/05/21 10:26:49;;;;;;;3.80;0.52;;;;;;;;;;10306819;28;20007;-65
2021/05/21 10:31:49;;;;;;;2.88;0.93;;;;;;;;;;10301443;28;20044;-62
2021/05/21 10:36:46;;;;;;;4.45;0.90;;;;;;;;;;10283575;28;21260;-65
2021/05/21 10:42:16;;;;;;;7.20;1.33;;;;;;;;;;10291424;28;20049;-66
2021/05/21 10:47:22;;;;;;;2.60;0.70;;;;;;;;;;10269603;28;20083;-65
2021/05/21 10:52:21;;;;;;;2.70;0.70;;;;;;;;;;10292559;28;20033;-65
2021/05/21 10:57:19;;;;;;;1.67;0.75;;;;;;;;;;10287833;28;20044;-65
2021/05/21 11:02:17;;;;;;;3.30;0.77;;;;;;;;;;10286531;28;20072;-65
2021/05/21 11:07:14;;;;;;;;;;;;;;;;;;10281232;28;20477;-65
2021/05/21 11:12:15;;;;;;;1.65;0.45;;;;;;;;;;10298334;28;19999;-65
2021/05/21 11:17:14;;;;;;;1.92;0.45;;;;;;;;;;10296455;28;20030;-67
2021/05/21 11:22:13;;;;;;;5.55;1.23;;;;;;;;;;10273592;28;20037;-65
2021/05/21 11:27:11;;;;;;;1.65;0.63;;;;;;;;;;10297145;28;20041;-64
2021/05/21 11:32:09;;;;;;;6.25;1.05;;;;;;;;;;10277427;28;20033;-65
2021/05/21 11:37:06;;;;;;;2.90;0.68;;;;;;;;;;10265298;28;20030;-65
2021/05/21 11:42:04;;;;;;;2.22;0.60;;;;;;;;;;10277893;28;20171;-65
2021/05/21 11:47:06;;;;;;;2.75;0.60;;;;;;;;;;10287798;28;20033;-64
2021/05/21 11:52:10;;;;;;;3.08;0.60;;;;;;;;;;10271469;28;20030;-64
2021/05/21 11:57:07;;;;;;;2.45;0.55;;;;;;;;;;10289586;28;20030;-64
2021/05/21 12:02:05;;;;;;;2.08;0.65;;;;;;;;;;10279570;28;20585;-64
2021/05/21 12:07:03;;;;;;;3.80;0.50;;;;;;;;;;10282824;28;20041;-63
2021/05/21 12:12:00;;;;;;;0.98;0.30;;;;;;;;;;10288996;28;20025;-64
2021/05/21 12:17:00;;;;;;;3.00;0.70;;;;;;;;;;10293330;28;20048;-65
2021/05/21 12:21:57;;;;;;;0.88;0.30;;;;;;;;;;10282277;28;20296;-66
2021/05/21 12:26:55;;;;;;;0.83;0.30;;;;;;;;;;10259195;28;20030;-66
2021/05/21 12:31:58;;;;;;;1.85;0.60;;;;;;;;;;10274440;28;20029;-62
2021/05/21 12:36:57;;;;;;;5.75;0.55;;;;;;;;;;10263391;28;20033;-64
2021/05/21 12:41:54;;;;;;;5.50;0.60;;;;;;;;;;10272138;28;20136;-65
2021/05/21 12:46:52;;;;;;;;;;;;;;;;;;10266362;28;20048;-65
2021/05/21 12:51:51;;;;;;;3.38;0.30;;;;;;;;;;10258452;28;19913;-63
2021/05/21 12:57:01;;;;;;;1.02;0.30;;;;;;;;;;10285126;28;20064;-65
2021/05/21 13:01:58;;;;;;;2.75;0.47;;;;;;;;;;10288808;28;20149;-66
2021/05/21 13:06:56;;;;;;;2.43;0.50;;;;;;;;;;10285084;28;20141;-66
2021/05/21 13:11:55;;;;;;;0.73;0.38;;;;;;;;;;10279096;28;20037;-66
2021/05/21 13:16:54;;;;;;;2.47;0.40;;;;;;;;;;10294587;28;20041;-65
2021/05/21 13:21:53;;;;;;;0.28;0.28;;;;;;;;;;10278946;28;20044;-65
2021/05/21 13:26:52;;;;;;;1.35;0.32;;;;;;;;;;10296443;28;20042;-66
2021/05/21 13:31:50;;;;;;;3.15;0.77;;;;;;;;;;10282015;28;20044;-66
2021/05/21 13:36:47;;;;;;;;;;;;;;;;;;10285924;28;20049;-66
2021/05/21 13:41:44;;;;;;;4.97;0.77;;;;;;;;;;10292944;28;20410;-66
2021/05/21 13:46:42;;;;;;;;;;;;;;;;;;10282949;28;20065;-65
2021/05/21 13:51:39;;;;;;;0.55;0.28;;;;;;;;;;10284732;28;19919;-66
2021/05/21 13:56:36;;;;;;;;;;;;;;;;;;10287666;28;20132;-66
2021/05/21 14:01:34;;;;;;;4.93;0.38;;;;;;;;;;10299128;28;19921;-66
2021/05/21 14:06:31;;;;;;;;;;;;;;;;;;10287153;28;20040;-66
2021/05/21 14:11:29;;;;;;;1.38;0.82;;;;;;;;;;10294006;28;20330;-66
2021/05/21 14:16:26;;;;;;;;;;;;;;;;;;10297352;28;20049;-66
2021/05/21 14:21:24;;;;;;;1.63;0.40;;;;;;;;;;10291633;28;19913;-65
2021/05/21 14:26:21;;;;;;;;;;;;;;;;;;10288440;28;20121;-66
2021/05/21 14:31:19;;;;;;;0.82;0.47;;;;;;;;;;10287539;28;19913;-66
2021/05/21 14:36:16;;;;;;;;;;;;;;;;;;10286085;28;20034;-67
2021/05/21 14:41:13;;;;;;;1.08;0.50;;;;;;;;;;10282131;28;19935;-66
2021/05/21 14:46:11;;;;;;;1.93;0.30;;;;;;;;;;10291311;28;20578;-66
2021/05/21 14:51:08;;;;;;;1.80;0.43;;;;;;;;;;10293527;28;20528;-67
2021/05/21 14:56:06;;;;;;;2.90;0.65;;;;;;;;;;10262669;28;20025;-66
2021/05/21 15:01:04;;;;;;;0.80;0.40;;;;;;;;;;10292574;28;20041;-65
2021/05/21 15:06:02;;;;;;;0.57;0.50;;;;;;;;;;10285062;28;21244;-66
2021/05/21 15:11:00;;;;;;;1.63;0.57;;;;;;;;;;10299437;28;20048;-65
2021/05/21 15:26:11;;;;;;;2.05;0.30;;;;;;;;;;10283720;28;20029;-64
2021/05/21 15:31:10;;;;;;;0.38;0.25;;;;;;;;;;10265606;28;20029;-67
2021/05/21 15:36:07;;;;;;;1.15;0.40;;;;;;;;;;10293900;28;20057;-65
2021/05/21 15:41:10;;;;;;;0.20;0.20;;;;;;;;;;10299315;28;20080;-65
2021/05/21 16:01:13;;;;;;;24.17;4.82;;;;;;;;;;10297524;28;20040;-65
2021/05/21 16:06:11;;;;;;;13.23;3.50;;;;;;;;;;10259512;28;20033;-64
2021/05/21 16:11:11;;;;;;;15.97;3.60;;;;;;;;;;10280671;28;20116;-67
2021/05/21 16:16:09;;;;;;;17.00;3.95;;;;;;;;;;10278805;28;20026;-66
2021/05/21 16:21:08;;;;;;;10.32;3.75;;;;;;;;;;10301804;28;20030;-65
2021/05/21 16:26:06;;;;;;;6.75;2.63;;;;;;;;;;10287736;28;20099;-62
2021/05/21 16:31:03;;;;;;;10.00;4.43;;;;;;;;;;10291715;28;20524;-66
2021/05/21 16:36:02;;;;;;;8.87;2.80;;;;;;;;;;10285275;28;20041;-66
2021/05/21 16:41:03;;;;;;;17.80;7.95;;;;;;;;;;10305577;28;20275;-67
2021/05/21 16:46:00;;;;;;;5.72;1.70;;;;;;;;;;10289473;28;20080;-65
2021/05/21 16:50:58;;;;;;;4.23;2.27;;;;;;;;;;10283178;28;20099;-66
2021/05/21 16:55:55;;;;;;;2.90;1.43;;;;;;;;;;10292324;28;20562;-65
2021/05/21 17:00:53;;;;;;;7.20;2.03;;;;;;;;;;10268822;28;20043;-65
2021/05/21 17:05:50;;;;;;;5.00;1.63;;;;;;;;;;10289700;28;20060;-66
2021/05/21 17:10:50;;;;;;;3.63;1.10;;;;;;;;;;10290989;28;20049;-64
2021/05/21 17:46:53;;;;;;;0.90;0.70;;;;;;;;;;10286598;28;20038;-66
2021/05/21 18:07:30;;;;;;;6.40;0.40;;;;;;;;;;10289295;28;20056;-63
2021/05/21 18:12:49;;;;;;;1.60;0.52;;;;;;;;;;10271985;28;20470;-65
2021/05/21 18:48:46;;;;;;;2.67;0.38;;;;;;;;;;10292905;28;20041;-64
2021/05/21 19:03:56;;;;;;;3.78;0.55;;;;;;;;;;10304826;28;20045;-64
2021/05/21 19:08:58;;;;;;;0.97;0.37;;;;;;;;;;10297676;28;20359;-65
2021/05/21 19:14:09;;;;;;;0.32;0.30;;;;;;;;;;10292112;28;20116;-65
2021/05/21 19:19:07;;;;;;;1.05;0.43;;;;;;;;;;10278749;28;20116;-64
2021/05/21 19:24:05;;;;;;;3.20;0.47;;;;;;;;;;10296363;28;20061;-66
2021/05/21 19:44:43;;;;;;;2.03;0.70;;;;;;;;;;10282994;28;20041;-64
2021/05/21 20:15:29;;;;;;;1.60;0.73;;;;;;;;;;10250511;28;20120;-65
2021/05/21 20:20:26;;;;;;;0.67;0.63;;;;;;;;;;10300881;28;20071;-65
2021/05/21 20:25:28;;;;;;;4.17;0.90;;;;;;;;;;10277875;28;20114;-63
2021/05/21 20:30:31;;;;;;;2.45;0.68;;;;;;;;;;10284757;28;20214;-64
2021/05/21 20:41:23;;;;;;;2.10;0.68;;;;;;;;;;10285152;28;20044;-65
2021/05/21 21:02:11;;;;;;;2.88;0.70;;;;;;;;;;10268057;28;20099;-63
2021/05/21 21:12:32;;;;;;;4.30;0.75;;;;;;;;;;10288994;28;20079;-64
2021/05/21 21:53:31;;;;;;;1.75;0.30;;;;;;;;;;10298223;28;20071;-64
2021/05/21 21:58:48;;;;;;;3.25;0.60;;;;;;;;;;10278009;28;20053;-66
2021/05/21 22:28:49;;;;;;;11.55;0.77;;;;;;;;;;10305392;28;20048;-64
2021/05/21 22:33:47;;;;;;;0.60;0.60;;;;;;;;;;10282692;28;20518;-64
2021/05/21 22:38:45;;;;;;;1.37;0.50;;;;;;;;;;10300237;28;21358;-66
2021/05/21 22:43:44;;;;;;;5.10;0.63;;;;;;;;;;10290921;28;20152;-68
2021/05/21 22:48:41;;;;;;;2.25;0.70;;;;;;;;;;10309715;28;20041;-64
2021/05/21 22:53:39;;;;;;;1.83;0.33;;;;;;;;;;10283121;28;20193;-64
2021/05/21 22:58:37;;;;;;;4.90;0.67;;;;;;;;;;10302960;28;20041;-64
2021/05/21 23:03:34;;;;;;;2.63;0.52;;;;;;;;;;10306885;28;20305;-64
2021/05/21 23:08:32;;;;;;;0.30;0.30;;;;;;;;;;10290146;28;20044;-62
2021/05/21 23:13:29;;;;;;;0.67;0.37;;;;;;;;;;10276608;28;20175;-64
2021/05/21 23:18:27;;;;;;;0.73;0.37;;;;;;;;;;10295418;28;20482;-66
2021/05/21 23:23:24;;;;;;;3.30;0.33;;;;;;;;;;10292912;28;20639;-63
2021/05/21 23:28:22;;;;;;;0.50;0.30;;;;;;;;;;10281968;28;20045;-62
2021/05/21 23:33:19;;;;;;;2.73;0.97;;;;;;;;;;10285803;28;20125;-65
2021/05/21 23:38:16;;;;;;;2.90;0.50;;;;;;;;;;10295081;28;20414;-62
2021/05/21 23:43:14;;;;;;;4.10;0.87;;;;;;;;;;10297989;28;20041;-62
2021/05/21 23:48:11;;;;;;;0.50;0.33;;;;;;;;;;10287544;28;20120;-64
2021/05/21 23:53:09;;;;;;;0.90;0.47;;;;;;;;;;10296673;28;20041;-65
2021/05/21 23:58:06;;;;;;;4.97;0.80;;;;;;;;;;10294091;28;20041;-67
